Time;durP1;ratioP1;P1;durP2;ratioP2;P2;SDS_P1;SDS_P2;PMS_P1;PMS_P2;Temp;Humidity;BMP_temperature;BMP_pressure;BME280_temperature;BME280_humidity;BME280_pressure;Samples;Min_cycle;Max_cycle;Signal;HPM_P1;HPM_P2
2020/12/24 00:01:15;;;;;;;1.52;0.88;;;9.30;99.90;;;;;;4896990;29;20061;-79
2020/12/24 00:03:41;;;;;;;1.50;0.90;;;9.30;99.90;;;;;;4881026;29;20053;-79
2020/12/24 00:06:08;;;;;;;2.15;0.90;;;9.30;99.90;;;;;;4896206;29;20461;-78
2020/12/24 00:08:39;;;;;;;4.68;1.95;;;9.20;99.90;;;;;;4896781;29;20072;-79
2020/12/24 00:11:08;;;;;;;1.30;0.88;;;9.20;99.90;;;;;;4895853;29;20053;-79
2020/12/24 00:13:35;;;;;;;1.02;0.80;;;9.20;99.90;;;;;;4880764;29;20160;-79
2020/12/24 00:16:03;;;;;;;1.98;0.80;;;9.10;99.90;;;;;;4895325;29;20052;-79
2020/12/24 00:18:34;;;;;;;1.55;1.10;;;9.10;99.90;;;;;;4880499;29;20136;-79
2020/12/24 00:21:01;;;;;;;0.98;0.75;;;9.10;99.90;;;;;;4896774;29;20056;-79
2020/12/24 00:23:33;;;;;;;1.35;0.70;;;9.00;99.90;;;;;;4880613;29;20060;-79
2020/12/24 00:25:59;;;;;;;2.20;0.95;;;9.00;99.90;;;;;;4895842;29;20048;-79
2020/12/24 00:28:26;;;;;;;1.10;0.65;;;9.00;99.90;;;;;;4895886;29;20044;-79
2020/12/24 00:30:52;;;;;;;0.70;0.60;;;9.00;99.90;;;;;;4895970;29;20052;-79
2020/12/24 00:33:20;;;;;;;2.38;0.95;;;9.00;99.90;;;;;;4895951;29;20113;-79
2020/12/24 00:35:51;;;;;;;1.20;0.80;;;9.00;99.90;;;;;;4896000;29;20056;-79
2020/12/24 00:38:18;;;;;;;1.23;1.00;;;8.90;99.90;;;;;;4895478;29;20135;-79
2020/12/24 00:40:45;;;;;;;2.10;0.80;;;8.90;99.90;;;;;;4896035;29;20124;-79
2020/12/24 00:43:12;;;;;;;1.77;1.00;;;8.90;99.90;;;;;;4895485;29;20124;-78
2020/12/24 00:45:38;;;;;;;1.27;0.55;;;8.90;99.90;;;;;;4895435;29;20044;-79
2020/12/24 00:48:05;;;;;;;2.40;0.75;;;8.90;99.90;;;;;;4879248;29;20059;-78
2020/12/24 00:50:37;;;;;;;0.52;0.40;;;8.90;99.90;;;;;;4895521;29;20041;-78
2020/12/24 00:53:03;;;;;;;0.50;0.40;;;8.90;99.90;;;;;;4895325;29;20052;-78
2020/12/24 00:55:35;;;;;;;0.88;0.47;;;8.90;99.90;;;;;;4895868;29;20051;-78
2020/12/24 00:58:07;;;;;;;2.25;0.60;;;8.80;99.90;;;;;;4894450;29;20041;-79
2020/12/24 01:00:39;;;;;;;0.70;0.50;;;8.80;99.90;;;;;;4894991;29;20044;-78
2020/12/24 01:03:06;;;;;;;1.10;0.50;;;8.80;99.90;;;;;;4895680;29;20044;-79
2020/12/24 01:05:34;;;;;;;1.00;0.60;;;8.80;99.90;;;;;;4894853;29;20057;-79
2020/12/24 01:08:01;;;;;;;1.08;0.40;;;8.80;99.90;;;;;;4895056;29;20040;-78
2020/12/24 01:10:27;;;;;;;1.48;0.47;;;8.70;99.90;;;;;;4895461;29;20504;-78
2020/12/24 01:12:58;;;;;;;2.47;0.60;;;8.70;99.90;;;;;;4895970;29;20047;-79
2020/12/24 01:15:30;;;;;;;1.60;0.50;;;8.70;99.90;;;;;;4895532;29;20056;-79
2020/12/24 01:18:02;;;;;;;1.73;0.50;;;8.70;99.90;;;;;;4879066;29;20044;-78
2020/12/24 01:20:29;;;;;;;0.55;0.30;;;8.70;99.90;;;;;;4879982;29;20057;-79
2020/12/24 01:22:55;;;;;;;0.93;0.57;;;8.70;99.90;;;;;;4895299;29;20053;-78
2020/12/24 01:25:21;;;;;;;0.75;0.50;;;8.70;99.90;;;;;;4879388;29;20516;-78
2020/12/24 01:27:53;;;;;;;1.60;0.60;;;8.70;99.90;;;;;;4894001;29;20563;-79
2020/12/24 01:30:19;;;;;;;1.00;0.50;;;8.70;99.90;;;;;;4879526;29;20104;-78
2020/12/24 01:32:50;;;;;;;1.45;0.60;;;8.60;99.90;;;;;;4894855;29;20098;-78
2020/12/24 01:35:22;;;;;;;1.35;0.50;;;8.70;99.90;;;;;;4895144;29;20049;-78
2020/12/24 01:37:48;;;;;;;1.02;0.60;;;8.70;99.90;;;;;;4897246;29;20056;-78
2020/12/24 01:40:15;;;;;;;0.80;0.60;;;8.60;99.90;;;;;;4898674;29;20527;-79
2020/12/24 01:42:41;;;;;;;1.15;0.68;;;8.60;99.90;;;;;;4898740;29;20147;-78
2020/12/24 01:45:13;;;;;;;1.10;0.52;;;8.60;99.90;;;;;;4899538;29;20055;-79
2020/12/24 01:47:39;;;;;;;1.90;0.85;;;8.60;99.90;;;;;;4882578;29;20052;-79
2020/12/24 01:50:11;;;;;;;2.75;0.90;;;8.70;99.90;;;;;;4897564;29;20113;-79
2020/12/24 01:52:42;;;;;;;1.10;0.80;;;8.70;99.90;;;;;;4882465;29;20068;-78
2020/12/24 01:55:14;;;;;;;1.00;0.38;;;8.70;99.90;;;;;;4897601;29;20086;-78
2020/12/24 01:57:40;;;;;;;1.55;0.60;;;8.70;99.90;;;;;;4897864;29;20049;-79
2020/12/24 02:00:12;;;;;;;1.05;0.70;;;8.80;99.90;;;;;;4896366;29;20665;-79
2020/12/24 02:02:39;;;;;;;1.50;0.63;;;8.80;99.90;;;;;;4897507;29;20048;-79
2020/12/24 02:05:06;;;;;;;2.13;0.60;;;8.80;99.90;;;;;;4896742;29;20060;-79
2020/12/24 02:07:37;;;;;;;2.17;0.77;;;8.80;99.90;;;;;;4897253;29;20413;-78
2020/12/24 02:10:03;;;;;;;0.95;0.50;;;8.70;99.90;;;;;;4881132;29;20086;-78
2020/12/24 02:12:30;;;;;;;2.22;0.70;;;8.70;99.90;;;;;;4897600;29;20048;-79
2020/12/24 02:14:58;;;;;;;0.68;0.35;;;8.70;99.90;;;;;;4882163;29;20049;-78
2020/12/24 02:17:25;;;;;;;0.75;0.40;;;8.70;99.90;;;;;;4897534;29;20129;-78
2020/12/24 02:19:51;;;;;;;1.13;0.40;;;8.70;99.90;;;;;;4897014;29;20084;-79
2020/12/24 02:22:22;;;;;;;1.15;0.70;;;8.70;99.90;;;;;;4897522;29;20399;-78
2020/12/24 02:24:48;;;;;;;0.90;0.40;;;8.60;99.90;;;;;;4897869;29;20052;-78
2020/12/24 02:27:15;;;;;;;0.85;0.68;;;8.60;99.90;;;;;;4896617;29;20051;-78
2020/12/24 02:29:41;;;;;;;1.52;0.80;;;8.60;99.90;;;;;;4880748;29;20056;-78
2020/12/24 02:32:07;;;;;;;1.02;0.80;;;8.60;99.90;;;;;;4880792;29;20168;-78
2020/12/24 02:34:36;;;;;;;1.13;0.70;;;8.60;99.90;;;;;;4895205;29;20044;-79
2020/12/24 02:37:09;;;;;;;1.33;1.08;;;8.70;99.90;;;;;;4895228;29;20058;-78
2020/12/24 02:42:28;;;;;;;1.00;0.80;;;8.70;99.90;;;;;;5843083;23;20386;-80
2020/12/24 02:45:00;;;;;;;1.35;1.02;;;8.70;99.90;;;;;;4914455;23;20051;-80
2020/12/24 02:47:26;;;;;;;1.48;0.63;;;8.70;99.90;;;;;;4919699;28;20085;-80
2020/12/24 02:49:58;;;;;;;1.52;0.80;;;8.80;99.90;;;;;;4953107;29;20071;-80
2020/12/24 02:52:25;;;;;;;0.77;0.75;;;8.80;99.90;;;;;;4941122;28;20104;-80
2020/12/24 02:54:56;;;;;;;1.27;0.75;;;8.80;99.90;;;;;;4941209;28;20497;-80
2020/12/24 02:57:28;;;;;;;1.20;0.80;;;8.80;99.90;;;;;;4956303;28;20039;-80
2020/12/24 03:00:08;;;;;;;1.60;0.98;;;8.80;99.90;;;;;;4956240;28;20262;-80
2020/12/24 03:02:39;;;;;;;1.15;0.95;;;8.80;99.90;;;;;;4940772;28;20050;-80
2020/12/24 03:05:10;;;;;;;0.90;0.70;;;8.80;99.90;;;;;;4956680;28;20090;-80
2020/12/24 03:07:42;;;;;;;1.63;0.75;;;8.80;99.90;;;;;;4955475;28;20055;-80
2020/12/24 03:10:13;;;;;;;0.88;0.77;;;8.80;99.90;;;;;;4956328;28;20071;-80
2020/12/24 03:12:45;;;;;;;3.97;0.60;;;8.80;99.90;;;;;;4955125;28;20042;-80
2020/12/24 03:15:16;;;;;;;0.90;0.70;;;8.70;99.90;;;;;;4955171;28;20078;-79
2020/12/24 03:17:47;;;;;;;1.70;0.55;;;8.70;99.90;;;;;;4954745;28;20046;-80
2020/12/24 03:20:18;;;;;;;0.90;0.50;;;8.70;99.90;;;;;;4955733;28;20117;-80
2020/12/24 03:22:50;;;;;;;1.17;0.50;;;8.70;99.90;;;;;;4955054;28;20138;-79
2020/12/24 03:25:21;;;;;;;1.00;0.50;;;8.70;99.90;;;;;;4955067;28;20050;-79
2020/12/24 03:27:52;;;;;;;2.17;1.17;;;8.70;99.90;;;;;;4954995;28;20085;-79
2020/12/24 03:30:24;;;;;;;1.48;0.20;;;8.50;99.90;;;;;;4940128;28;20098;-80
2020/12/24 03:32:55;;;;;;;1.25;0.30;;;8.20;99.90;;;;;;4954995;28;20039;-80
2020/12/24 03:35:27;;;;;;;2.50;0.30;;;8.00;99.90;;;;;;4954708;28;20047;-79
2020/12/24 03:37:58;;;;;;;0.30;0.20;;;7.80;99.90;;;;;;4954319;28;20129;-79
2020/12/24 03:40:30;;;;;;;0.80;0.30;;;7.60;99.90;;;;;;4954656;28;20054;-79
2020/12/24 03:43:01;;;;;;;3.00;0.30;;;7.50;99.90;;;;;;4954509;28;20125;-79
2020/12/24 03:45:28;;;;;;;1.30;0.40;;;7.40;99.90;;;;;;4954270;28;20089;-79
2020/12/24 03:47:59;;;;;;;1.05;0.30;;;7.30;99.90;;;;;;4954856;28;20062;-79
2020/12/24 03:50:30;;;;;;;2.47;0.95;;;7.10;99.90;;;;;;4955346;28;20070;-80
2020/12/24 03:52:57;;;;;;;1.90;0.28;;;7.10;99.90;;;;;;4954649;28;20041;-79
2020/12/24 03:55:31;;;;;;;0.88;0.30;;;7.00;99.90;;;;;;4940142;28;20130;-79
2020/12/24 03:58:02;;;;;;;2.33;0.40;;;7.00;99.90;;;;;;4954573;28;20052;-80
2020/12/24 04:00:33;;;;;;;0.55;0.32;;;7.00;99.90;;;;;;4954090;28;20050;-80
2020/12/24 04:03:05;;;;;;;1.77;0.57;;;6.90;99.90;;;;;;4972094;28;20047;-79
2020/12/24 04:05:36;;;;;;;0.95;0.40;;;6.90;99.90;;;;;;4972190;28;20074;-80
2020/12/24 04:08:09;;;;;;;1.27;0.32;;;6.90;99.90;;;;;;4954959;28;20070;-80
2020/12/24 04:10:40;;;;;;;1.52;0.40;;;6.80;99.90;;;;;;4954692;28;20413;-80
2020/12/24 04:13:11;;;;;;;2.05;0.50;;;6.70;99.90;;;;;;4954586;28;20743;-80
2020/12/24 04:15:43;;;;;;;2.45;0.20;;;6.70;99.90;;;;;;4954475;28;20117;-80
2020/12/24 04:18:14;;;;;;;2.67;0.60;;;6.70;99.90;;;;;;4954268;28;20043;-80
2020/12/24 04:20:45;;;;;;;1.00;0.30;;;6.70;99.90;;;;;;4955069;28;20046;-79
2020/12/24 04:23:16;;;;;;;0.63;0.32;;;6.80;99.90;;;;;;4954289;28;20106;-80
2020/12/24 04:25:48;;;;;;;0.47;0.30;;;6.80;99.90;;;;;;4938749;28;20047;-79
2020/12/24 04:28:21;;;;;;;0.38;0.30;;;6.80;99.90;;;;;;4955051;28;20489;-79
2020/12/24 04:30:54;;;;;;;1.52;0.50;;;6.80;99.90;;;;;;4939231;28;20043;-79
2020/12/24 04:33:25;;;;;;;0.63;0.38;;;6.80;99.90;;;;;;4954465;28;20062;-80
2020/12/24 04:35:57;;;;;;;0.43;0.35;;;6.80;99.90;;;;;;4954372;28;20054;-80
2020/12/24 04:38:28;;;;;;;2.38;0.32;;;6.80;99.90;;;;;;4939029;28;20074;-80
2020/12/24 04:41:00;;;;;;;1.38;0.30;;;6.70;99.90;;;;;;4970635;28;20138;-80
2020/12/24 04:43:32;;;;;;;1.55;0.57;;;6.70;99.90;;;;;;4953861;28;20039;-79
2020/12/24 04:46:05;;;;;;;0.40;0.22;;;6.70;99.90;;;;;;4954816;28;20090;-80
2020/12/24 04:48:39;;;;;;;0.88;0.40;;;6.80;99.90;;;;;;4955156;28;20070;-79
2020/12/24 04:51:13;;;;;;;0.30;0.25;;;6.80;99.90;;;;;;4969908;28;20043;-80
2020/12/24 04:53:45;;;;;;;1.25;0.40;;;6.80;99.90;;;;;;4955024;28;20043;-80
2020/12/24 04:56:16;;;;;;;1.65;0.75;;;6.70;99.90;;;;;;4938935;28;20078;-80
2020/12/24 04:58:43;;;;;;;1.10;0.30;;;6.70;99.90;;;;;;4953958;28;20046;-79
2020/12/24 05:01:16;;;;;;;0.28;0.22;;;6.70;99.90;;;;;;4954938;28;20050;-80
2020/12/24 05:03:53;;;;;;;0.57;0.57;;;6.60;99.90;;;;;;4938955;28;20062;-80
2020/12/24 05:06:25;;;;;;;1.73;0.30;;;6.60;99.90;;;;;;4938810;28;20501;-80
2020/12/24 05:08:58;;;;;;;0.82;0.20;;;6.50;99.90;;;;;;4969174;28;20673;-79
2020/12/24 05:11:30;;;;;;;0.25;0.25;;;6.50;99.90;;;;;;4940834;28;20417;-80
2020/12/24 05:14:39;;;;;;;1.05;0.43;;;6.50;99.90;;;;;;4962653;28;20039;-82
2020/12/24 05:20:14;;;;;;;0.52;0.30;;;6.40;99.90;;;;;;4976891;28;20052;-81
2020/12/24 05:23:28;;;;;;;0.47;0.25;;;6.40;99.90;;;;;;5015788;23;20067;-82
2020/12/24 05:26:26;;;;;;;0.40;0.20;;;6.40;99.90;;;;;;4924933;29;20473;-82
2020/12/24 05:43:00;;;;;;;1.02;0.30;;;6.20;99.90;;;;;;4959043;28;20502;-80
2020/12/24 05:45:32;;;;;;;1.08;0.30;;;6.20;99.90;;;;;;4960458;29;20577;-80
2020/12/24 05:48:13;;;;;;;0.90;0.30;;;6.20;99.90;;;;;;4945598;29;20047;-80
2020/12/24 05:50:41;;;;;;;0.63;0.28;;;6.20;99.90;;;;;;4929164;29;20039;-80
2020/12/24 05:53:16;;;;;;;0.30;0.25;;;6.20;99.90;;;;;;4943729;29;20047;-80
2020/12/24 05:55:43;;;;;;;1.92;0.32;;;6.20;99.90;;;;;;4926335;29;20142;-80
2020/12/24 05:58:10;;;;;;;1.92;0.68;;;6.20;99.90;;;;;;4927767;29;20062;-80
2020/12/24 06:00:42;;;;;;;2.85;0.40;;;6.10;99.90;;;;;;4943200;29;20058;-80
2020/12/24 06:03:11;;;;;;;1.17;0.30;;;6.00;99.90;;;;;;4943016;29;20047;-80
2020/12/24 06:05:58;;;;;;;0.45;0.38;;;6.00;99.90;;;;;;4944719;29;20074;-80
2020/12/24 06:08:28;;;;;;;1.13;0.28;;;6.00;99.90;;;;;;4944515;29;20122;-80
2020/12/24 06:11:03;;;;;;;0.73;0.20;;;6.00;99.90;;;;;;4944248;29;20051;-80
2020/12/24 06:13:35;;;;;;;0.22;0.20;;;5.90;99.90;;;;;;4942687;29;20047;-80
2020/12/24 06:16:11;;;;;;;0.22;0.20;;;5.90;99.90;;;;;;4929761;29;20075;-80
2020/12/24 07:22:31;;;;;;;3.58;2.38;;;5.70;99.90;;;;;;4963821;28;20125;-80
2020/12/24 07:25:04;;;;;;;4.07;1.42;;;5.70;99.90;;;;;;4957233;28;20051;-80
2020/12/24 07:27:31;;;;;;;0.95;0.65;;;5.80;99.90;;;;;;4942877;28;20049;-79
2020/12/24 07:30:08;;;;;;;2.03;0.85;;;5.80;99.90;;;;;;4942816;28;20047;-80
2020/12/24 08:33:13;;;;;;;1.08;0.90;;;5.70;99.90;;;;;;4938690;29;20145;-80
2020/12/24 08:35:47;;;;;;;2.03;0.85;;;5.70;99.90;;;;;;4927508;29;20054;-82
2020/12/24 08:38:18;;;;;;;3.83;2.08;;;5.70;99.90;;;;;;4912794;29;20076;-81
2020/12/24 08:44:30;;;;;;;8.45;3.60;;;5.70;99.90;;;;;;4951488;28;20035;-73
2020/12/24 08:47:06;;;;;;;6.15;2.60;;;5.60;99.90;;;;;;4931426;29;20054;-76
2020/12/24 09:02:30;;;;;;;6.25;2.92;;;6.00;99.90;;;;;;5014383;23;20027;-80
2020/12/24 09:04:59;;;;;;;3.08;1.80;;;6.00;99.90;;;;;;4938179;29;20047;-80
2020/12/24 09:07:34;;;;;;;3.72;1.60;;;6.10;99.90;;;;;;4939083;29;20129;-81
2020/12/24 09:10:26;;;;;;;2.25;1.48;;;6.20;99.90;;;;;;4938147;29;20047;-81
2020/12/24 09:13:01;;;;;;;2.25;1.13;;;6.20;99.90;;;;;;4930640;28;20047;-79
2020/12/24 09:15:30;;;;;;;1.30;0.57;;;6.30;99.90;;;;;;4958749;28;20464;-80
2020/12/24 09:18:07;;;;;;;1.17;0.70;;;6.30;99.90;;;;;;4946381;28;20039;-80
2020/12/24 09:20:36;;;;;;;0.40;0.40;;;6.30;99.90;;;;;;4945591;28;20078;-81
2020/12/24 09:23:10;;;;;;;1.77;0.70;;;6.40;99.90;;;;;;4957655;28;20054;-78
2020/12/24 09:25:46;;;;;;;0.73;0.50;;;6.50;99.90;;;;;;4941519;28;20051;-81
2020/12/24 09:28:25;;;;;;;2.20;0.88;;;6.60;99.90;;;;;;4935371;28;20046;-81
2020/12/24 09:31:00;;;;;;;0.80;0.50;;;6.60;99.90;;;;;;4944853;28;20066;-80
2020/12/24 09:33:27;;;;;;;1.58;0.60;;;6.70;99.90;;;;;;4960617;28;20043;-79
2020/12/24 09:35:54;;;;;;;0.90;0.50;;;6.80;99.90;;;;;;4958597;28;20047;-81
2020/12/24 09:38:26;;;;;;;1.25;0.70;;;6.80;99.90;;;;;;4945064;28;20047;-81
2020/12/24 09:40:52;;;;;;;0.73;0.47;;;6.90;99.90;;;;;;4944389;28;20118;-81
2020/12/24 10:04:48;;;;;;;2.40;0.75;;;7.20;99.90;;;;;;5898031;23;20055;-80
2020/12/24 10:07:16;;;;;;;2.80;0.80;;;7.20;99.90;;;;;;4941004;29;20047;-81
2020/12/24 10:09:42;;;;;;;1.75;0.95;;;7.20;99.90;;;;;;4922848;29;20118;-82
2020/12/24 10:21:19;;;;;;;1.05;0.60;;;7.20;99.90;;;;;;5520039;23;20052;-80
2020/12/24 10:23:51;;;;;;;5.38;0.65;;;7.30;99.90;;;;;;4928374;23;20061;-79
2020/12/24 10:26:22;;;;;;;3.53;0.60;;;7.30;99.90;;;;;;4899067;29;20044;-80
2020/12/24 10:28:54;;;;;;;0.88;0.40;;;7.30;99.90;;;;;;4899686;29;20049;-79
2020/12/24 10:31:21;;;;;;;2.03;0.60;;;7.30;99.90;;;;;;4884263;29;20056;-80
2020/12/24 10:33:47;;;;;;;1.63;0.70;;;7.30;99.90;;;;;;4900437;29;20133;-80
2020/12/24 10:36:23;;;;;;;2.22;0.82;;;7.30;99.90;;;;;;4883710;29;20059;-79
2020/12/24 10:38:54;;;;;;;3.08;1.02;;;7.30;99.90;;;;;;4899828;29;20059;-81
2020/12/24 10:41:26;;;;;;;2.85;1.48;;;7.30;99.90;;;;;;4899776;29;20049;-80
2020/12/24 10:43:57;;;;;;;2.60;0.70;;;7.30;99.90;;;;;;4898215;29;20507;-80
2020/12/24 10:46:25;;;;;;;1.60;1.10;;;7.30;99.90;;;;;;4898829;29;20496;-80
2020/12/24 10:48:51;;;;;;;2.00;0.75;;;7.40;99.90;;;;;;4899166;29;20091;-80
2020/12/24 10:51:18;;;;;;;1.52;0.55;;;7.40;99.90;;;;;;4898769;29;20507;-79
2020/12/24 10:53:48;;;;;;;2.20;0.60;;;7.40;99.90;;;;;;4971806;23;20054;-79
2020/12/24 10:56:16;;;;;;;1.95;0.65;;;7.50;99.90;;;;;;4920806;29;20047;-80
2020/12/24 10:58:44;;;;;;;1.38;0.60;;;7.50;99.90;;;;;;4936342;29;20047;-80
2020/12/24 11:01:16;;;;;;;1.00;0.60;;;7.50;99.90;;;;;;4920841;29;20055;-80
2020/12/24 11:03:48;;;;;;;1.45;0.70;;;7.60;99.90;;;;;;4931812;29;20047;-79
2020/12/24 11:06:25;;;;;;;1.65;0.68;;;7.60;99.90;;;;;;4904750;29;20435;-79
2020/12/24 11:08:52;;;;;;;0.80;0.47;;;7.60;99.90;;;;;;4919729;29;20055;-80
2020/12/24 11:11:34;;;;;;;1.08;0.63;;;7.60;99.90;;;;;;4919433;29;20054;-80
2020/12/24 11:14:00;;;;;;;0.80;0.50;;;7.70;99.90;;;;;;4917586;29;20067;-79
2020/12/24 11:16:33;;;;;;;0.95;0.52;;;7.70;99.90;;;;;;4917052;29;20047;-80
2020/12/24 11:19:00;;;;;;;1.10;0.63;;;7.70;99.90;;;;;;4900996;29;20051;-79
2020/12/24 11:21:35;;;;;;;4.00;0.75;;;7.80;99.90;;;;;;4916807;29;20056;-80
2020/12/24 11:24:06;;;;;;;1.27;0.57;;;7.80;99.90;;;;;;4916714;29;20056;-79
2020/12/24 11:26:38;;;;;;;0.63;0.52;;;7.80;99.90;;;;;;4901573;29;20055;-79
2020/12/24 11:29:07;;;;;;;2.53;0.50;;;7.80;99.90;;;;;;4919836;29;20083;-79
2020/12/24 11:31:36;;;;;;;0.63;0.40;;;7.80;99.90;;;;;;4916563;29;20603;-80
2020/12/24 11:34:03;;;;;;;2.67;0.45;;;7.80;99.90;;;;;;4900861;29;20052;-79
2020/12/24 11:36:35;;;;;;;0.57;0.40;;;7.90;99.90;;;;;;4915842;29;20056;-81
2020/12/24 11:39:07;;;;;;;0.45;0.40;;;7.80;99.90;;;;;;4915649;29;20471;-79
2020/12/24 11:41:36;;;;;;;1.45;0.50;;;7.80;99.90;;;;;;4931651;29;20052;-80
2020/12/24 11:44:08;;;;;;;1.40;0.45;;;7.80;99.90;;;;;;4914376;29;20059;-81
2020/12/24 11:46:34;;;;;;;7.68;1.05;;;7.80;99.90;;;;;;4942216;29;20141;-80
2020/12/24 11:49:06;;;;;;;0.75;0.30;;;7.70;99.90;;;;;;4943696;29;20106;-80
2020/12/24 11:51:36;;;;;;;1.27;0.50;;;7.70;99.90;;;;;;4961237;29;20043;-80
2020/12/24 11:54:07;;;;;;;1.40;0.50;;;7.70;99.90;;;;;;4960592;29;20062;-80
2020/12/24 11:56:34;;;;;;;0.95;0.55;;;7.80;99.90;;;;;;4943999;29;20425;-80
2020/12/24 11:59:06;;;;;;;0.85;0.40;;;7.80;99.90;;;;;;4943486;29;20075;-79
2020/12/24 12:01:41;;;;;;;3.05;0.93;;;7.80;99.90;;;;;;4940119;29;20048;-79
2020/12/24 12:04:13;;;;;;;1.55;0.43;;;7.80;99.90;;;;;;4938233;29;20074;-80
2020/12/24 12:06:39;;;;;;;0.70;0.50;;;7.80;99.90;;;;;;4938340;29;20382;-79
2020/12/24 12:09:06;;;;;;;2.40;0.40;;;7.80;99.90;;;;;;4935879;29;20043;-80
2020/12/24 12:11:34;;;;;;;2.88;0.40;;;7.80;99.90;;;;;;4935129;29;20052;-80
2020/12/24 12:14:05;;;;;;;1.85;0.45;;;7.70;99.90;;;;;;4919973;29;20047;-80
2020/12/24 12:16:33;;;;;;;1.23;0.50;;;7.80;99.90;;;;;;4935255;29;20078;-80
2020/12/24 12:18:59;;;;;;;1.58;0.82;;;7.70;99.90;;;;;;4935013;29;20146;-80
2020/12/24 12:21:26;;;;;;;0.68;0.47;;;7.80;99.90;;;;;;4934154;29;20142;-80
2020/12/24 12:23:58;;;;;;;1.00;0.40;;;7.80;99.90;;;;;;4936358;23;20052;-80
2020/12/24 12:26:30;;;;;;;2.30;0.63;;;7.80;99.90;;;;;;4916540;29;20052;-80
2020/12/24 12:28:57;;;;;;;2.03;0.47;;;7.70;99.90;;;;;;4915982;29;20058;-80
2020/12/24 12:31:28;;;;;;;0.73;0.32;;;7.60;99.90;;;;;;4900948;29;20100;-79
2020/12/24 12:34:01;;;;;;;1.48;0.20;;;7.60;99.90;;;;;;4896771;29;20135;-78
2020/12/24 12:36:33;;;;;;;1.13;0.97;;;7.60;99.90;;;;;;4882106;29;20059;-79
2020/12/24 12:39:04;;;;;;;9.52;1.08;;;7.60;99.90;;;;;;4897445;29;20048;-80
2020/12/24 12:41:36;;;;;;;1.10;0.50;;;7.60;99.90;;;;;;4882505;29;20048;-81
2020/12/24 13:27:53;;;;;;;0.88;0.40;;;7.40;99.90;;;;;;4894871;29;20518;-80
2020/12/24 13:30:24;;;;;;;1.75;0.40;;;7.40;99.90;;;;;;4881127;29;20591;-80
2020/12/24 13:32:56;;;;;;;0.77;0.40;;;7.40;99.90;;;;;;4897599;29;20096;-80
2020/12/24 13:35:27;;;;;;;0.80;0.30;;;7.40;99.90;;;;;;4900728;29;20124;-80
2020/12/24 13:37:58;;;;;;;0.50;0.30;;;7.40;99.90;;;;;;4900285;29;20049;-79
2020/12/24 13:40:30;;;;;;;0.50;0.35;;;7.40;99.90;;;;;;4884609;29;20143;-78
2020/12/24 13:43:01;;;;;;;1.02;0.40;;;7.40;99.90;;;;;;4884176;29;20056;-80
2020/12/24 13:45:32;;;;;;;2.58;0.50;;;7.30;99.90;;;;;;4899889;29;20040;-80
2020/12/24 13:48:04;;;;;;;0.88;0.43;;;7.30;99.90;;;;;;4899828;29;20045;-80
2020/12/24 13:50:35;;;;;;;1.75;0.50;;;7.30;99.90;;;;;;4899879;29;20570;-80
2020/12/24 13:53:06;;;;;;;1.00;0.38;;;7.30;99.90;;;;;;4899794;29;20044;-80
2020/12/24 13:55:38;;;;;;;1.42;0.50;;;7.30;99.90;;;;;;4899970;29;20037;-80
2020/12/24 13:58:09;;;;;;;0.63;0.40;;;7.30;99.90;;;;;;4895829;29;20049;-80
2020/12/24 14:00:41;;;;;;;0.82;0.30;;;7.30;99.90;;;;;;4900782;29;20091;-80
2020/12/24 14:03:12;;;;;;;0.40;0.30;;;7.30;99.90;;;;;;4906396;23;20048;-79
2020/12/24 14:05:40;;;;;;;3.28;0.35;;;7.30;99.90;;;;;;4899761;29;20045;-79
2020/12/24 14:08:07;;;;;;;3.88;0.88;;;7.30;99.90;;;;;;4899611;29;20148;-79
2020/12/24 14:10:39;;;;;;;3.70;1.45;;;7.30;99.90;;;;;;4915071;29;20119;-80
2020/12/24 14:13:11;;;;;;;1.42;0.65;;;7.30;99.90;;;;;;4910949;29;20045;-80
2020/12/24 14:15:37;;;;;;;20.67;10.10;;;7.20;99.90;;;;;;4880673;29;20052;-80
2020/12/24 14:18:09;;;;;;;0.88;0.38;;;7.20;99.90;;;;;;4895336;29;20389;-79
2020/12/24 14:20:41;;;;;;;1.45;0.43;;;7.30;99.90;;;;;;4897048;29;20077;-80
2020/12/24 14:23:10;;;;;;;13.98;5.40;;;7.20;99.90;;;;;;4914970;29;20060;-81
2020/12/24 14:33:29;;;;;;;0.50;0.28;;;7.20;99.90;;;;;;4979984;23;20119;-81
2020/12/24 14:35:56;;;;;;;0.47;0.30;;;7.20;99.90;;;;;;4910239;29;20044;-81
2020/12/24 14:38:30;;;;;;;3.80;1.13;;;7.20;99.90;;;;;;4923727;29;20043;-81
2020/12/24 14:41:05;;;;;;;1.08;0.30;;;7.20;99.90;;;;;;4906767;29;20055;-81
2020/12/24 14:43:38;;;;;;;2.83;1.00;;;7.20;99.90;;;;;;4906034;29;20047;-80
2020/12/24 14:46:07;;;;;;;1.65;1.05;;;7.10;99.90;;;;;;4920061;29;20048;-80
2020/12/24 14:48:39;;;;;;;2.38;1.13;;;7.10;99.90;;;;;;4905242;29;20043;-79
2020/12/24 14:51:11;;;;;;;5.28;2.67;;;7.10;99.90;;;;;;4905398;29;20425;-80
2020/12/24 14:53:37;;;;;;;5.05;2.60;;;7.10;99.90;;;;;;4904724;29;20079;-80
2020/12/24 14:56:09;;;;;;;2.03;0.60;;;7.10;99.90;;;;;;4905554;29;20044;-80
2020/12/24 14:58:41;;;;;;;2.63;1.10;;;7.10;99.90;;;;;;4904980;29;20184;-79
2020/12/24 15:01:08;;;;;;;0.95;0.50;;;7.10;99.90;;;;;;4905249;29;20048;-81
2020/12/24 15:03:34;;;;;;;3.53;1.15;;;7.10;99.90;;;;;;4919742;29;20048;-70
2020/12/24 15:06:05;;;;;;;1.65;0.73;;;7.10;99.90;;;;;;4934706;29;20062;-71
2020/12/24 15:08:37;;;;;;;2.80;0.50;;;7.10;99.90;;;;;;4920321;29;20463;-80
2020/12/24 15:11:03;;;;;;;4.43;1.80;;;7.00;99.90;;;;;;4903315;29;20771;-79
2020/12/24 15:13:35;;;;;;;4.55;2.30;;;7.00;99.90;;;;;;4905139;29;20122;-80
2020/12/24 15:16:06;;;;;;;4.45;1.42;;;7.00;99.90;;;;;;4920125;29;20098;-81
2020/12/24 15:18:37;;;;;;;4.22;0.93;;;7.00;99.90;;;;;;4905238;29;20051;-81
2020/12/24 15:21:04;;;;;;;1.65;0.60;;;7.00;99.90;;;;;;4904380;29;20054;-80
2020/12/24 15:23:35;;;;;;;1.35;0.50;;;7.00;99.90;;;;;;4920107;29;20040;-81
2020/12/24 15:26:07;;;;;;;2.13;0.65;;;7.00;99.90;;;;;;4904937;29;20059;-80
2020/12/24 15:28:38;;;;;;;1.33;0.80;;;7.00;99.90;;;;;;4920722;29;20439;-80
2020/12/24 15:31:09;;;;;;;1.27;0.80;;;7.00;99.90;;;;;;4920815;29;20036;-80
2020/12/24 15:33:41;;;;;;;3.10;0.75;;;6.90;99.90;;;;;;5002734;23;20107;-80
2020/12/24 15:36:12;;;;;;;2.42;0.82;;;7.00;99.90;;;;;;4919765;29;20075;-80
2020/12/24 15:38:44;;;;;;;5.97;2.72;;;6.90;99.90;;;;;;4904827;29;20054;-80
2020/12/24 15:41:10;;;;;;;3.20;0.88;;;6.90;99.90;;;;;;4919651;29;20052;-80
2020/12/24 15:43:42;;;;;;;5.53;2.30;;;6.80;99.90;;;;;;4919554;29;20048;-81
2020/12/24 15:46:09;;;;;;;2.83;1.10;;;6.90;99.90;;;;;;4919653;29;20520;-80
2020/12/24 15:48:35;;;;;;;2.35;1.05;;;6.80;99.90;;;;;;4920136;29;20099;-80
2020/12/24 15:51:04;;;;;;;6.40;2.42;;;6.80;99.90;;;;;;4920245;29;20102;-81
2020/12/24 15:53:39;;;;;;;2.00;1.17;;;6.80;99.90;;;;;;4919459;29;20520;-81
2020/12/24 15:56:10;;;;;;;2.75;1.70;;;6.80;99.90;;;;;;4904878;29;20051;-81
2020/12/24 15:58:42;;;;;;;4.15;1.50;;;6.80;99.90;;;;;;4905209;29;20139;-80
2020/12/24 16:01:13;;;;;;;3.10;1.52;;;6.80;99.90;;;;;;4921039;29;20039;-80
2020/12/24 16:03:45;;;;;;;3.70;1.30;;;6.80;99.90;;;;;;4904854;29;20047;-80
2020/12/24 16:06:12;;;;;;;2.95;1.38;;;6.70;99.90;;;;;;4903603;29;20422;-80
2020/12/24 16:08:44;;;;;;;4.10;2.15;;;6.70;99.90;;;;;;4919272;29;20044;-80
2020/12/24 16:11:12;;;;;;;3.72;1.52;;;6.70;99.90;;;;;;4919145;29;20506;-80
2020/12/24 16:13:44;;;;;;;2.70;1.65;;;6.70;99.90;;;;;;4904271;29;20054;-80
2020/12/24 16:16:16;;;;;;;1.85;0.77;;;6.50;99.90;;;;;;4919068;29;20047;-80
2020/12/24 16:18:48;;;;;;;1.75;0.70;;;6.50;99.90;;;;;;4903914;29;20058;-80
2020/12/24 16:21:21;;;;;;;1.20;0.70;;;6.60;99.90;;;;;;4903391;29;20134;-80
2020/12/24 16:23:48;;;;;;;0.98;0.73;;;6.50;99.90;;;;;;4950248;23;20067;-80
2020/12/24 16:26:22;;;;;;;4.43;1.08;;;6.50;99.90;;;;;;4916038;29;20062;-82
2020/12/24 16:28:51;;;;;;;1.38;0.68;;;6.50;99.90;;;;;;4916503;29;20056;-82
2020/12/24 16:31:18;;;;;;;2.25;0.88;;;6.40;99.90;;;;;;4900297;29;20044;-81
2020/12/24 16:33:46;;;;;;;1.20;0.65;;;6.40;99.90;;;;;;4900323;29;20056;-82
2020/12/24 16:36:17;;;;;;;2.53;0.55;;;6.30;99.90;;;;;;4915958;29;20067;-82
2020/12/24 16:38:50;;;;;;;0.85;0.50;;;6.30;99.90;;;;;;4916914;29;20040;-82
2020/12/24 16:41:20;;;;;;;1.17;0.73;;;6.30;99.90;;;;;;4915877;29;20048;-82
2020/12/24 16:46:36;;;;;;;1.75;0.70;;;6.20;99.90;;;;;;5508360;23;20381;-82
2020/12/24 16:49:03;;;;;;;2.75;0.95;;;6.20;99.90;;;;;;4915981;29;20122;-82
2020/12/24 16:51:35;;;;;;;0.95;0.60;;;6.20;99.90;;;;;;4915868;29;20499;-82
2020/12/24 16:54:01;;;;;;;3.08;1.10;;;6.10;99.90;;;;;;4912801;29;20049;-83
2020/12/24 16:56:28;;;;;;;3.15;0.85;;;6.10;99.90;;;;;;4896924;29;20435;-82
2020/12/24 16:58:55;;;;;;;1.17;0.70;;;6.20;99.90;;;;;;4897116;29;20056;-82
2020/12/24 17:01:21;;;;;;;1.80;0.57;;;6.10;99.90;;;;;;4897025;29;20116;-82
2020/12/24 17:03:48;;;;;;;1.25;0.70;;;6.10;99.90;;;;;;4896819;29;20104;-82
2020/12/24 17:06:16;;;;;;;1.20;0.60;;;6.10;99.90;;;;;;4928328;29;20052;-82
2020/12/24 17:08:47;;;;;;;1.27;0.70;;;6.10;99.90;;;;;;4900704;29;20460;-82
2020/12/24 17:11:21;;;;;;;1.63;0.70;;;6.10;99.90;;;;;;4916346;29;20139;-83
2020/12/24 17:13:52;;;;;;;4.00;0.60;;;6.10;99.90;;;;;;4900790;29;20400;-82
2020/12/24 17:16:22;;;;;;;1.70;0.90;;;6.10;99.90;;;;;;4916779;29;20388;-82
2020/12/24 17:18:55;;;;;;;2.63;0.70;;;6.00;99.90;;;;;;4885704;29;20048;-82
2020/12/24 17:21:26;;;;;;;2.60;1.13;;;6.00;99.90;;;;;;4900695;29;20139;-82